Terminal Aerodrome Forecast
Issued by NWS Blacksburg, VA

Current Version | Previous Version | Graphics & Text | Print | Product List | Glossary On
Versions: 1 2 3 4 5 6 7 8 9 10 11 12 13 14 15 16 17 18 19 20 21 22 23 24 25 26 27 28 29 30 31 32 33 34 35 36 37 38 39 40 41 42 43
000
FTUS41 KRNK 010903 AAA
TAFBLF
TAF AMD
KBLF 010903Z 0109/0206 24006KT P6SM -RA SCT015 BKN035
      TEMPO 0111/0113 5SM -SHRA BR BKN015
     FM011400 27011G20KT P6SM BKN045
     FM011900 27008KT P6SM SCT050
     FM020300 22004KT P6SM BKN050=

USA.gov is the U.S. government's official web portal to all federal, state and local government web resources and services.